Flight Track Log - Related Links

Times and Time Zones

All times are in EDT time to prevent confusion due to time zone crossing. See the N929KD flight status page for this flight to view local times or setup timezone preferences in your user account.

Time Position Orientation Groundspeed Altitude Reporting Facility
EDT Latitude Longitude Course Direction KTS MPH feet Rate Location/Type
Fri 06:25:00 PM 32.4728 -92.4050 82° East 211 243 8,300  Level Fort Worth Center
Fri 06:26:00 PM 32.4806 -92.3381 81° East 211 243 10,000 1,650 Climbing Fort Worth Center
Fri 06:27:00 PM 32.4900 -92.2661 82° East 216 249 11,600 1,650 Climbing Fort Worth Center
Fri 06:28:00 PM 32.4978 -92.1967 84° East 216 249 13,300 1,783 Climbing Fort Worth Center
Fri 06:29:55 PM 32.5111 -92.0447 138° Southeast 222 255 16,800 1,680 Climbing Houston Center
Fri 06:30:55 PM 32.4633 -91.9931 146° Southeast 207 238 18,200 1,400 Climbing Houston Center
Fri 06:31:55 PM 32.4114 -91.9511 145° Southeast 207 238 19,600 1,400 Climbing Houston Center
Fri 06:32:55 PM 32.3572 -91.9067 147° Southeast 227 261 21,000 1,400 Climbing Houston Center
Fri 06:33:55 PM 32.3031 -91.8647 143° Southeast 235 270 22,400 1,300 Climbing Houston Center
Fri 06:34:55 PM 32.2469 -91.8156 144° Southeast 240 276 23,600 1,250 Climbing Houston Center
Fri 06:35:55 PM 32.1906 -91.7664 140° Southeast 246 283 24,900 1,350 Climbing Houston Center
Fri 06:36:55 PM 32.1303 -91.7075 140° Southeast 258 297 26,300 1,350 Climbing Houston Center
Fri 06:37:55 PM 32.0717 -91.6489 140° Southeast 270 311 27,600 1,250 Climbing Houston Center
Fri 06:38:55 PM 32.0114 -91.5900 141° Southeast 276 318 28,800 700 Climbing Houston Center
Fri 06:39:55 PM 31.9467 -91.5289 141° Southeast 286 329 29,000 100 Climbing Houston Center
Fri 06:40:55 PM 31.8736 -91.4583 141° Southeast 315 362 29,000 -200 Level Houston Center
Fri 06:41:55 PM 31.7942 -91.3828 141° Southeast 339 390 28,600 -500 Descending Houston Center
Fri 06:42:55 PM 31.7125 -91.3050 142° Southeast 365 420 28,000 -600 Descending Houston Center
Fri 06:43:55 PM 31.6311 -91.2294 139° Southeast 379 436 27,400 -700 Descending Houston Center
Fri 06:44:55 PM 31.5536 -91.1497 143° Southeast 373 429 26,600 -700 Descending Houston Center
Fri 06:45:55 PM 31.4697 -91.0769 141° Southeast 373 429 26,000 -650 Descending Houston Center
Fri 06:46:55 PM 31.3922 -91.0044 140° Southeast 368 423 25,300 -750 Descending Houston Center
Fri 06:47:55 PM 31.3147 -90.9272 141° Southeast 368 423 24,500 -1,100 Descending Houston Center
Fri 06:48:55 PM 31.2372 -90.8550 142° Southeast 368 423 23,100 -1,400 Descending Houston Center
Fri 06:49:55 PM 31.1594 -90.7828 141° Southeast 363 418 21,700 -1,400 Descending Houston Center
Fri 06:50:55 PM 31.0861 -90.7131 141° Southeast 357 411 20,300 -1,400 Descending Houston Center
Fri 06:51:55 PM 31.0144 -90.6461 140° Southeast 342 394 18,900 -1,350 Descending Houston Center
Fri 06:52:55 PM 30.9431 -90.5767 143° Southeast 342 394 17,600 -1,250 Descending Houston Center
Fri 06:53:55 PM 30.8717 -90.5144 141° Southeast 337 388 16,400 -1,200 Descending Houston Center
Fri 06:54:55 PM 30.8064 -90.4522 144° Southeast 319 367 15,200 -1,200 Descending Houston Center
Fri 06:55:50 PM 30.7453 -90.4000 141° Southeast 299 344 14,100 -1,138 Descending Houston Center
Fri 06:56:51 PM 30.6822 -90.3403 143° Southeast 289 333 13,000 -1,082 Descending Houston Center
Fri 06:57:52 PM 30.6147 -90.2808 157° South 279 321 11,900 -1,548 Descending Houston Center
Fri 06:58:55 PM 30.5478 -90.2481 152° Southeast 277 319 9,800 -2,293 Descending Houston Center
Fri 06:59:55 PM 30.4825 -90.2081 148° Southeast 267 307 7,200 -2,600 Descending Houston Center
Fri 07:00:55 PM 30.4258 -90.1678 152° Southeast 257 296 4,600 -2,191 Descending Houston Center
Fri 07:01:50 PM 30.3753 -90.1372 148° Southeast 221 254 3,000 -931 Descending Houston Center
Fri 07:02:51 PM 30.3292 -90.1042 167° South 182 209 2,800 -480 Descending Houston Center
Fri 07:03:55 PM 30.2789 -90.0906 171° South 192 221 2,000 -378 Descending Houston Center
Fri 07:04:58 PM 30.2181 -90.0794 147° Southeast 186 214 2,000 -145 Level Houston Center
Fri 07:05:59 PM 30.1739 -90.0467 159° South 188 216 1,700 -308 Descending Houston Center
Fri 07:06:55 PM 30.1361 -90.0303 183° South 182 209 1,400 -375 Descending Houston Center
Fri 07:08:07 PM 30.0819 -90.0336 168° South 133 153 900 -550 Descending Houston Center
Fri 07:08:55 PM 30.0631 -90.0292 168° South 140 161 300 -750 Descending Houston Center

Login

Don't have an account? Register now (free) for customized features, flight alerts, and more!